createdAt,value
2018-08-31T00:00:02.182Z,69.23
2018-08-31T00:00:42.632Z,69.42
2018-08-31T00:01:22.973Z,69.52
2018-08-31T00:02:03.387Z,69.62
2018-08-31T00:02:43.747Z,69.33
2018-08-31T00:03:24.160Z,69.33
2018-08-31T00:04:04.538Z,69.33
2018-08-31T00:04:44.926Z,69.13
2018-08-31T00:05:25.377Z,69.13
2018-08-31T00:06:05.815Z,69.13
2018-08-31T00:06:46.180Z,69.52
2018-08-31T00:07:26.596Z,69.71
2018-08-31T00:08:06.984Z,70
2018-08-31T00:08:47.385Z,69.42
2018-08-31T00:09:27.821Z,69.81
2018-08-31T00:10:08.168Z,69.81
2018-08-31T00:10:48.582Z,69.71
2018-08-31T00:11:29.001Z,69.81
2018-08-31T00:12:09.372Z,69.81
2018-08-31T00:12:49.749Z,69.71
2018-08-31T00:13:30.168Z,69.71
2018-08-31T00:14:10.575Z,69.62
2018-08-31T00:14:50.958Z,70
2018-08-31T00:15:31.297Z,69.9
2018-08-31T00:16:11.740Z,70.38
2018-08-31T00:16:52.098Z,69.68
2018-08-31T00:17:32.499Z,70.19
2018-08-31T00:18:12.928Z,70.48
2018-08-31T00:18:53.336Z,70.09
2018-08-31T00:19:33.797Z,70.29
2018-08-31T00:20:14.173Z,70.38
2018-08-31T00:20:54.634Z,69.81
2018-08-31T00:21:34.964Z,70.09
2018-08-31T00:22:15.376Z,70.09
2018-08-31T00:22:55.707Z,70.15
2018-08-31T00:23:36.147Z,70.38
2018-08-31T00:24:16.517Z,70.19
2018-08-31T00:24:56.900Z,69.9
2018-08-31T00:25:37.276Z,70
2018-08-31T00:26:17.663Z,70.09
2018-08-31T00:26:58.047Z,70.09
2018-08-31T00:27:38.488Z,69.9
2018-08-31T00:28:18.897Z,69.52
2018-08-31T00:28:59.300Z,69.71
2018-08-31T00:29:39.661Z,69.81
2018-08-31T00:30:20.098Z,69.23
2018-08-31T00:31:00.488Z,69.62
2018-08-31T00:31:40.935Z,69.62
2018-08-31T00:32:21.337Z,69.33
2018-08-31T00:33:01.708Z,69.23
2018-08-31T00:33:42.080Z,68.95
2018-08-31T00:34:22.519Z,69.04
2018-08-31T00:35:02.934Z,69.23
2018-08-31T00:35:43.326Z,69.23
2018-08-31T00:36:23.677Z,69.9
2018-08-31T00:37:04.132Z,69.23
2018-08-31T00:37:44.521Z,68.75
2018-08-31T00:38:24.858Z,69.13
2018-08-31T00:39:05.338Z,69.42
2018-08-31T00:39:45.660Z,69.71
2018-08-31T00:40:26.103Z,69.52
2018-08-31T00:41:06.483Z,69.42
2018-08-31T00:41:46.892Z,69.33
2018-08-31T00:42:27.285Z,69.23
2018-08-31T00:43:07.687Z,68.85
2018-08-31T00:43:48.095Z,68.85
2018-08-31T00:44:28.528Z,69.42
2018-08-31T00:45:08.904Z,68.95
2018-08-31T00:45:49.309Z,68.85
2018-08-31T00:46:29.720Z,68.27
2018-08-31T00:47:10.105Z,68.75
2018-08-31T00:47:50.573Z,68.85
2018-08-31T00:48:30.969Z,69.23
2018-08-31T00:49:11.315Z,69.23
2018-08-31T00:49:51.716Z,69.62
2018-08-31T00:50:32.124Z,69.52
2018-08-31T00:52:52.250Z,69.23
2018-08-31T00:53:32.352Z,69.42
2018-08-31T00:54:12.750Z,69.42
2018-08-31T00:54:53.153Z,69.04
2018-08-31T00:55:33.605Z,69.42
2018-08-31T00:56:13.957Z,69.23
2018-08-31T00:56:54.427Z,69.13
2018-08-31T00:57:34.783Z,68.75
2018-08-31T00:58:15.277Z,68.85
2018-08-31T00:58:55.612Z,68.37
2018-08-31T00:59:35.982Z,68.85
2018-08-31T01:00:16.435Z,68.75
2018-08-31T01:00:56.832Z,68.27
2018-08-31T01:01:37.207Z,68.37
2018-08-31T01:02:17.618Z,68.46
2018-08-31T01:02:58.043Z,68.46
2018-08-31T01:03:38.427Z,68.56
2018-08-31T01:04:18.772Z,68.37
2018-08-31T01:04:59.235Z,68.95
2018-08-31T01:05:39.606Z,69.23
2018-08-31T01:06:20.087Z,69.42
2018-08-31T01:07:00.539Z,69.04
2018-08-31T01:07:40.892Z,68.75
2018-08-31T01:08:21.334Z,68.95
2018-08-31T01:09:01.780Z,69.23
2018-08-31T01:09:42.201Z,69.13
2018-08-31T01:10:22.539Z,69.23
2018-08-31T01:11:02.932Z,68.85
2018-08-31T01:13:00.896Z,69.52
2018-08-31T01:13:41.033Z,69.13
2018-08-31T01:14:21.262Z,68.85
2018-08-31T01:15:01.636Z,69.42
2018-08-31T01:15:42.105Z,69.42
2018-08-31T01:16:22.468Z,69.42
2018-08-31T01:17:02.839Z,69.04
2018-08-31T01:17:43.254Z,68.85
2018-08-31T01:18:23.679Z,69.04
2018-08-31T01:19:04.093Z,68.27
2018-08-31T01:19:44.438Z,68.66
2018-08-31T01:20:24.874Z,69.04
2018-08-31T01:21:05.227Z,68.66
2018-08-31T01:21:45.613Z,68.66
2018-08-31T01:22:26.076Z,68.85
2018-08-31T01:23:06.469Z,68.46
2018-08-31T01:23:46.880Z,68.46
2018-08-31T01:24:27.343Z,68.56
2018-08-31T01:25:07.688Z,68.66
2018-08-31T01:25:48.063Z,68.46
2018-08-31T01:26:28.495Z,68.37
2018-08-31T01:27:08.946Z,68.85
2018-08-31T01:27:49.241Z,68.75
2018-08-31T01:28:29.734Z,69.42
2018-08-31T01:29:10.104Z,69.42
2018-08-31T01:29:50.463Z,68.85
2018-08-31T01:30:30.877Z,68.66
2018-08-31T01:31:11.320Z,68.18
2018-08-31T01:31:51.698Z,68.98
2018-08-31T01:34:11.321Z,68.46
2018-08-31T01:34:51.705Z,68.56
2018-08-31T01:35:32.124Z,68.37
2018-08-31T01:36:12.531Z,68.3
2018-08-31T01:36:52.933Z,68.56
2018-08-31T01:37:33.326Z,68.08
2018-08-31T01:38:13.709Z,68.46
2018-08-31T01:38:54.237Z,68.56
2018-08-31T01:39:34.514Z,68.37
2018-08-31T01:40:14.883Z,68.37
2018-08-31T01:40:55.307Z,68.37
2018-08-31T01:41:35.713Z,68.56
2018-08-31T01:42:16.138Z,69.04
2018-08-31T01:42:56.519Z,68.66
2018-08-31T01:43:36.916Z,68.95
2018-08-31T01:44:17.302Z,69.33
2018-08-31T01:44:57.761Z,69.04
2018-08-31T01:45:38.151Z,69.04
2018-08-31T01:46:18.548Z,68.95
2018-08-31T01:46:58.961Z,68.85
2018-08-31T01:47:39.311Z,68.46
2018-08-31T01:48:19.728Z,69.04
2018-08-31T01:49:00.143Z,69.04
2018-08-31T01:49:40.527Z,69.42
2018-08-31T01:50:20.936Z,68.95
2018-08-31T01:51:01.385Z,68.75
2018-08-31T01:51:41.766Z,68.85
2018-08-31T01:52:22.162Z,68.75
2018-08-31T01:53:02.510Z,68.66
2018-08-31T01:53:42.973Z,68.18
2018-08-31T01:54:23.331Z,68.4
2018-08-31T01:55:03.719Z,68.66
2018-08-31T01:55:44.175Z,68.46
2018-08-31T01:56:24.590Z,68.56
2018-08-31T01:57:04.956Z,68.46
2018-08-31T01:57:45.366Z,68.95
2018-08-31T01:58:25.777Z,68.75
2018-08-31T01:59:06.193Z,68.75
2018-08-31T01:59:46.547Z,69.04
2018-08-31T02:00:26.979Z,68.85
2018-08-31T02:01:07.369Z,69.04
2018-08-31T02:01:47.751Z,69.52
2018-08-31T02:02:28.176Z,69.04
2018-08-31T02:03:08.640Z,69.71
2018-08-31T02:03:48.968Z,69.71
2018-08-31T02:04:29.361Z,69.81
2018-08-31T02:05:09.791Z,69.23
2018-08-31T02:05:50.216Z,70
2018-08-31T02:06:30.562Z,69.42
2018-08-31T02:07:10.946Z,69.52
2018-08-31T02:07:51.348Z,69.52
2018-08-31T02:08:31.716Z,70
2018-08-31T02:09:12.112Z,70.09
2018-08-31T02:09:52.519Z,69.71
2018-08-31T02:10:32.886Z,69.04
2018-08-31T02:11:13.299Z,69.42
2018-08-31T02:11:53.658Z,69.42
2018-08-31T02:12:34.112Z,69.52
2018-08-31T02:13:14.553Z,69.42
2018-08-31T02:13:54.925Z,69.62
2018-08-31T02:14:35.308Z,69.13
2018-08-31T02:15:15.723Z,69.9
2018-08-31T02:15:56.098Z,69.33
2018-08-31T02:16:36.478Z,69.33
2018-08-31T02:17:16.831Z,69.42
2018-08-31T02:17:57.254Z,69.33
2018-08-31T02:18:37.729Z,69.36
2018-08-31T02:19:18.108Z,69.07
2018-08-31T02:19:58.525Z,68.98
2018-08-31T02:20:38.954Z,68.79
2018-08-31T02:21:19.369Z,69.36
2018-08-31T02:21:59.778Z,68.79
2018-08-31T02:22:40.186Z,69.07
2018-08-31T02:23:20.658Z,68.98
2018-08-31T02:24:01.013Z,69.17
2018-08-31T02:24:41.435Z,68.79
2018-08-31T02:25:21.788Z,69.17
2018-08-31T02:26:02.202Z,68.95
2018-08-31T02:26:42.597Z,69.13
2018-08-31T02:27:23.013Z,68.88
2018-08-31T02:28:03.436Z,69.46
2018-08-31T02:28:43.825Z,68.85
2018-08-31T02:29:24.238Z,69.17
2018-08-31T02:30:04.627Z,69.42
2018-08-31T02:30:45.051Z,69.36
2018-08-31T02:31:25.449Z,69.13
2018-08-31T02:32:05.816Z,69.84
2018-08-31T02:32:46.252Z,69.42
2018-08-31T02:33:26.674Z,69.62
2018-08-31T02:34:07.016Z,69.42
2018-08-31T02:34:47.436Z,69.33
2018-08-31T02:35:27.791Z,69.62
2018-08-31T02:36:08.176Z,69.42
2018-08-31T02:36:48.605Z,69.81
2018-08-31T02:37:29.002Z,70.09
2018-08-31T02:38:09.405Z,69.42
2018-08-31T02:38:49.779Z,69.13
2018-08-31T02:39:30.196Z,69.71
2018-08-31T02:40:10.627Z,69.33
2018-08-31T02:40:50.988Z,69.71
2018-08-31T02:41:31.457Z,70
2018-08-31T02:42:11.789Z,69.81
2018-08-31T02:42:52.177Z,69.81
2018-08-31T02:43:32.639Z,70
2018-08-31T02:44:13.011Z,69.81
2018-08-31T02:44:53.396Z,69.62
2018-08-31T02:45:33.831Z,69.81
2018-08-31T02:46:14.227Z,69.52
2018-08-31T02:46:54.597Z,69.84
2018-08-31T02:47:34.988Z,69.46
2018-08-31T02:48:15.404Z,69.36
2018-08-31T02:48:55.806Z,69.36
2018-08-31T02:49:36.209Z,69.36
2018-08-31T02:50:16.647Z,69.65
2018-08-31T02:50:57.070Z,69.56
2018-08-31T02:51:37.434Z,69.93
2018-08-31T02:52:17.840Z,69.74
2018-08-31T02:52:58.238Z,69.36
2018-08-31T02:53:38.575Z,69.56
2018-08-31T02:54:18.968Z,70
2018-08-31T02:54:59.369Z,70
2018-08-31T02:55:39.808Z,69.93
2018-08-31T02:56:20.193Z,69.23
2018-08-31T02:57:00.619Z,70
2018-08-31T02:59:15.104Z,69.52
2018-08-31T02:59:55.434Z,69.81
2018-08-31T03:00:35.903Z,69.81
2018-08-31T03:01:16.233Z,70.13
2018-08-31T03:01:56.633Z,70.13
2018-08-31T03:02:37.037Z,69.93
2018-08-31T03:03:17.466Z,69.13
2018-08-31T03:03:57.863Z,69.81
2018-08-31T03:04:38.267Z,69.84
2018-08-31T03:05:18.656Z,69.93
2018-08-31T03:05:59.066Z,69.71
2018-08-31T03:06:39.525Z,70.03
2018-08-31T03:07:19.928Z,69.84
2018-08-31T03:08:00.323Z,69.56
2018-08-31T03:08:40.711Z,69.93
2018-08-31T03:09:21.075Z,70
2018-08-31T03:10:01.441Z,69.74
2018-08-31T03:10:41.860Z,69.46
2018-08-31T03:11:22.253Z,70.13
2018-08-31T03:12:02.691Z,69.81
2018-08-31T03:12:43.076Z,70.09
2018-08-31T03:13:23.472Z,70.13
2018-08-31T03:14:03.897Z,70.48
2018-08-31T03:14:44.326Z,70.38
2018-08-31T03:15:24.672Z,70.29
2018-08-31T03:16:05.190Z,70.8
2018-08-31T03:16:45.491Z,71.47
2018-08-31T03:17:25.918Z,72.11
2018-08-31T03:18:06.358Z,72.05
2018-08-31T03:18:46.719Z,72.2
2018-08-31T03:19:27.130Z,71.57
2018-08-31T03:20:07.552Z,71.25
2018-08-31T03:20:47.931Z,71.66
2018-08-31T03:21:28.423Z,71.34
2018-08-31T03:22:08.780Z,71.86
2018-08-31T03:22:49.205Z,72.49
2018-08-31T03:23:29.601Z,72.01
2018-08-31T03:24:10.003Z,71.72
2018-08-31T03:24:50.385Z,72.49
2018-08-31T03:25:30.926Z,72.97
2018-08-31T03:26:11.245Z,73.26
2018-08-31T03:26:51.653Z,72.97
2018-08-31T03:27:32.035Z,73.16
2018-08-31T03:28:12.459Z,72.88
2018-08-31T03:28:52.869Z,73.07
2018-08-31T03:29:33.295Z,73.26
2018-08-31T03:30:13.705Z,73.26
2018-08-31T03:30:54.178Z,73.45
2018-08-31T03:31:34.574Z,72.97
2018-08-31T03:32:14.981Z,73.74
2018-08-31T03:32:55.370Z,73.35
2018-08-31T03:33:35.898Z,73.74
2018-08-31T03:34:16.274Z,73.55
2018-08-31T03:34:56.668Z,73.45
2018-08-31T03:37:14.212Z,74.02
2018-08-31T03:37:54.602Z,74.18
2018-08-31T03:38:35.008Z,74.18
2018-08-31T03:39:15.424Z,74.76
2018-08-31T03:39:55.887Z,75.04
2018-08-31T03:40:36.207Z,74.76
2018-08-31T03:41:16.676Z,75.04
2018-08-31T03:41:57.079Z,75.33
2018-08-31T03:42:37.447Z,75.52
2018-08-31T03:43:17.869Z,75.23
2018-08-31T03:43:58.235Z,75.81
2018-08-31T03:44:38.760Z,75.71
2018-08-31T03:45:19.066Z,75.62
2018-08-31T03:45:59.429Z,75.52
2018-08-31T03:46:39.860Z,75.81
2018-08-31T03:48:27.419Z,76.19
2018-08-31T03:49:07.732Z,75.9
2018-08-31T03:49:48.092Z,76
2018-08-31T03:50:28.480Z,76.1
2018-08-31T03:51:08.852Z,75.81
2018-08-31T03:51:49.417Z,76.39
2018-08-31T03:52:29.713Z,76.48
2018-08-31T03:53:10.120Z,76.57
2018-08-31T03:53:50.512Z,76.77
2018-08-31T03:54:30.935Z,76.19
2018-08-31T03:55:11.306Z,76.57
2018-08-31T03:55:51.705Z,76.96
2018-08-31T03:56:32.163Z,75.71
2018-08-31T03:57:12.511Z,75.52
2018-08-31T03:57:52.907Z,75.62
2018-08-31T03:58:34.126Z,75.33
2018-08-31T03:59:14.549Z,75.71
2018-08-31T03:59:54.957Z,75.62
2018-08-31T04:00:35.372Z,75.33
2018-08-31T04:01:15.698Z,74.89
2018-08-31T04:01:56.135Z,74.76
2018-08-31T04:02:36.625Z,74.95
2018-08-31T04:03:16.985Z,74.95
2018-08-31T04:03:57.362Z,75.52
2018-08-31T04:04:37.757Z,75.52
2018-08-31T04:05:18.180Z,75.81
2018-08-31T04:05:58.526Z,75.43
2018-08-31T04:06:38.925Z,74.95
2018-08-31T04:07:19.331Z,74.37
2018-08-31T04:07:59.727Z,74.37
2018-08-31T04:08:40.115Z,74.47
2018-08-31T04:09:20.491Z,74.37
2018-08-31T04:10:00.895Z,74.95
2018-08-31T04:10:41.291Z,74.85
2018-08-31T04:11:21.719Z,76
2018-08-31T04:12:02.055Z,76.04
2018-08-31T04:12:42.475Z,75.65
2018-08-31T04:13:22.855Z,75.27
2018-08-31T04:14:03.259Z,75.08
2018-08-31T04:14:43.662Z,74.69
2018-08-31T04:15:24.076Z,74.89
2018-08-31T04:16:04.506Z,75.65
2018-08-31T04:16:45.839Z,75.08
2018-08-31T04:17:26.357Z,74.79
2018-08-31T04:18:06.912Z,74.89
2018-08-31T04:18:47.473Z,74.79
2018-08-31T04:19:27.817Z,75.08
2018-08-31T04:20:08.203Z,75.08
2018-08-31T04:20:48.651Z,74.69
2018-08-31T04:21:29.024Z,74.98
2018-08-31T04:22:09.444Z,74.79
2018-08-31T04:22:49.901Z,74.51
2018-08-31T04:23:30.236Z,74.89
2018-08-31T04:24:10.649Z,74.22
2018-08-31T04:24:51.029Z,74.31
2018-08-31T04:25:31.444Z,74.31
2018-08-31T04:26:11.806Z,75.08
2018-08-31T04:26:52.265Z,75.08
2018-08-31T05:06:27.164Z,84.5
2018-08-31T05:07:07.543Z,84.22
2018-08-31T05:07:47.899Z,84.45
2018-08-31T05:08:28.503Z,84.59
2018-08-31T05:09:08.992Z,84.5
2018-08-31T05:09:49.323Z,84.5
2018-08-31T05:10:29.740Z,84.5
2018-08-31T05:11:10.256Z,84.5
2018-08-31T05:11:50.696Z,84.31
2018-08-31T05:12:31.220Z,84.5
2018-08-31T05:13:11.801Z,84.5
2018-08-31T05:13:52.187Z,84.41
2018-08-31T05:14:32.835Z,84.35
2018-08-31T05:15:13.329Z,84.31
2018-08-31T05:15:53.833Z,84.35
2018-08-31T05:16:34.277Z,84.35
2018-08-31T05:17:14.662Z,84.26
2018-08-31T05:17:55.044Z,84.26
2018-08-31T05:18:35.446Z,84.35
2018-08-31T05:19:15.848Z,83.97
2018-08-31T05:19:56.232Z,83.49
2018-08-31T05:20:36.671Z,83.59
2018-08-31T05:21:17.030Z,83.3
2018-08-31T05:21:57.511Z,82.92
2018-08-31T05:22:38.012Z,82.86
2018-08-31T05:23:18.319Z,82.67
2018-08-31T05:23:58.765Z,81.71
2018-08-31T05:24:39.163Z,81.9
2018-08-31T05:25:19.601Z,81.52
2018-08-31T05:25:59.948Z,81.04
2018-08-31T05:26:40.379Z,81.62
2018-08-31T05:27:20.810Z,81.43
2018-08-31T05:28:01.184Z,81.13
2018-08-31T05:28:41.559Z,81.13
2018-08-31T05:29:21.981Z,80.85
2018-08-31T05:30:02.390Z,80.37
2018-08-31T05:30:42.804Z,79.7
2018-08-31T05:31:23.180Z,79.64
2018-08-31T05:32:03.574Z,79.51
2018-08-31T05:32:43.960Z,79.07
2018-08-31T05:33:24.403Z,79.16
2018-08-31T05:34:04.764Z,79.55
2018-08-31T05:34:45.324Z,79.07
2018-08-31T05:35:25.568Z,78.59
2018-08-31T05:36:05.949Z,78.4
2018-08-31T05:36:46.379Z,78.49
2018-08-31T05:37:26.764Z,78.4
2018-08-31T05:38:07.151Z,77.82
2018-08-31T05:38:47.565Z,77.92
2018-08-31T05:39:27.950Z,77.58
2018-08-31T05:40:08.310Z,77.76
2018-08-31T05:40:48.776Z,77.44
2018-08-31T05:41:29.156Z,77.73
2018-08-31T05:42:10.694Z,77.58
2018-08-31T05:42:51.103Z,77.76
2018-08-31T05:43:31.519Z,77.09
2018-08-31T05:44:11.915Z,77.29
2018-08-31T05:44:52.387Z,77
2018-08-31T05:45:32.717Z,76.62
2018-08-31T05:46:13.147Z,76.71
2018-08-31T05:46:53.568Z,76.52
2018-08-31T05:47:34.007Z,76.71
2018-08-31T05:48:14.458Z,76.9
2018-08-31T05:48:54.924Z,76.52
2018-08-31T05:49:35.367Z,76.81
2018-08-31T05:50:15.756Z,76.81
2018-08-31T05:50:56.165Z,76.52
2018-08-31T05:51:36.589Z,76.62
2018-08-31T05:52:16.986Z,76.65
2018-08-31T05:52:57.379Z,76.71
2018-08-31T05:56:43.193Z,74.93
2018-08-31T05:57:36.650Z,74.73
2018-08-31T05:58:29.065Z,74.44
2018-08-31T05:59:21.335Z,74.93
2018-08-31T06:00:17.421Z,74.64
2018-08-31T06:01:10.173Z,74.73
2018-08-31T06:01:54.605Z,75.02
2018-08-31T06:02:34.892Z,74.44
2018-08-31T06:03:15.530Z,74.54
2018-08-31T06:03:55.928Z,74.64
2018-08-31T06:04:36.430Z,74.93
2018-08-31T06:05:17.107Z,74.64
2018-08-31T06:05:57.516Z,74.35
2018-08-31T06:06:38.707Z,74.06
2018-08-31T06:07:19.072Z,73.77
2018-08-31T06:07:59.896Z,73.58
2018-08-31T06:08:40.843Z,73.97
2018-08-31T06:09:21.843Z,74.16
2018-08-31T06:10:02.348Z,73.77
2018-08-31T06:10:43.125Z,73.68
2018-08-31T06:11:24.237Z,74.06
2018-08-31T06:12:05.222Z,73.97
2018-08-31T06:12:45.376Z,74.16
2018-08-31T06:13:26.057Z,73.68
2018-08-31T06:14:06.510Z,73.87
2018-08-31T06:14:46.863Z,74.06
2018-08-31T06:15:27.802Z,74.26
2018-08-31T06:16:08.143Z,74.44
2018-08-31T06:16:48.514Z,74.54
2018-08-31T06:17:28.977Z,74.44
2018-08-31T06:18:09.394Z,74.54
2018-08-31T06:18:49.890Z,74.54
2018-08-31T06:19:30.270Z,74.44
2018-08-31T06:20:10.798Z,74.54
2018-08-31T06:20:51.184Z,74.44
2018-08-31T06:21:31.585Z,74.26
2018-08-31T06:22:12.365Z,74.16
2018-08-31T06:22:52.509Z,73.97
2018-08-31T06:23:33.051Z,73.97
2018-08-31T06:24:13.570Z,74.01
2018-08-31T06:24:53.946Z,74.01
2018-08-31T06:25:36.807Z,73.72
2018-08-31T06:26:18.373Z,73.68
2018-08-31T06:27:00.141Z,73.52
2018-08-31T06:27:40.550Z,73.81
2018-08-31T06:28:21.141Z,73.81
2018-08-31T06:29:01.513Z,73.24
2018-08-31T06:29:41.899Z,73.72
2018-08-31T06:30:22.411Z,73.52
2018-08-31T06:31:03.176Z,73.62
2018-08-31T06:31:46.157Z,73.33
2018-08-31T06:32:26.741Z,73.14
2018-08-31T06:33:08.403Z,72.95
2018-08-31T06:33:53.776Z,73.33
2018-08-31T06:34:34.094Z,72.75
2018-08-31T06:35:23.451Z,72.75
2018-08-31T06:36:03.829Z,72.75
2018-08-31T06:36:44.449Z,72.95
2018-08-31T06:37:25.422Z,72.75
2018-08-31T06:38:05.891Z,72.28
2018-08-31T06:38:46.629Z,72.08
2018-08-31T06:39:27.903Z,71.89
2018-08-31T06:40:08.615Z,72.18
2018-08-31T06:40:50.878Z,72.18
2018-08-31T06:41:31.247Z,71.89
2018-08-31T06:42:11.663Z,72.08
2018-08-31T06:42:52.103Z,71.93
2018-08-31T06:43:32.931Z,72.12
2018-08-31T06:44:13.367Z,72.12
2018-08-31T06:44:53.778Z,71.64
2018-08-31T06:45:34.219Z,71.8
2018-08-31T06:46:14.714Z,71.25
2018-08-31T06:46:55.577Z,71.06
2018-08-31T06:47:38.792Z,71.31
2018-08-31T06:48:20.614Z,71.55
2018-08-31T06:49:10.214Z,71.12
2018-08-31T06:49:50.477Z,70.74
2018-08-31T06:50:31.120Z,71.12
2018-08-31T06:51:13.253Z,71.51
2018-08-31T06:51:54.110Z,70.97
2018-08-31T06:52:35.247Z,70.58
2018-08-31T06:53:15.360Z,70.97
2018-08-31T06:53:55.818Z,70.78
2018-08-31T06:54:36.291Z,70.39
2018-08-31T06:55:16.651Z,70.26
2018-08-31T06:55:57.086Z,69.87
2018-08-31T06:56:37.549Z,70.39
2018-08-31T06:57:18.040Z,69.87
2018-08-31T06:57:59.613Z,70.49
2018-08-31T06:58:40.402Z,70.45
2018-08-31T06:59:22.146Z,70.01
2018-08-31T07:00:06.870Z,69.78
2018-08-31T07:02:22.907Z,70.17
2018-08-31T07:03:02.875Z,69.78
2018-08-31T07:03:47.261Z,70.17
2018-08-31T07:06:10.390Z,70.55
2018-08-31T07:08:50.450Z,70.29
2018-08-31T07:09:51.093Z,69.81
2018-08-31T07:10:45.734Z,69.78
2018-08-31T07:11:28.143Z,69.87
2018-08-31T07:12:24.387Z,70.26
2018-08-31T07:13:04.693Z,70.17
2018-08-31T07:13:45.088Z,69.59
2018-08-31T07:14:25.901Z,70.17
2018-08-31T07:15:06.599Z,70.26
2018-08-31T07:15:47.049Z,69.2
2018-08-31T07:16:27.521Z,70.07
2018-08-31T07:17:08.037Z,69.68
2018-08-31T07:17:48.535Z,69.97
2018-08-31T07:18:28.857Z,69.11
2018-08-31T07:19:09.381Z,69.3
2018-08-31T07:19:49.798Z,69.62
2018-08-31T07:20:30.105Z,69.4
2018-08-31T07:21:10.555Z,69.62
2018-08-31T07:21:51.066Z,69.78
2018-08-31T07:22:31.520Z,69.59
2018-08-31T07:23:11.946Z,69.72
2018-08-31T07:23:52.500Z,70.01
2018-08-31T07:24:32.854Z,69.53
2018-08-31T07:25:13.372Z,69.34
2018-08-31T07:25:53.832Z,69.43
2018-08-31T07:26:34.435Z,69.43
2018-08-31T07:27:14.886Z,69.24
2018-08-31T07:27:55.629Z,69.34
2018-08-31T07:31:57.715Z,68.66
2018-08-31T07:32:38.128Z,67.9
2018-08-31T07:33:18.537Z,67.9
2018-08-31T07:33:58.891Z,68.08
2018-08-31T07:34:39.380Z,67.93
2018-08-31T07:35:19.815Z,68.02
2018-08-31T07:36:00.220Z,68.02
2018-08-31T07:36:40.673Z,67.54
2018-08-31T07:37:22.118Z,67.93
2018-08-31T07:38:02.574Z,67.93
2018-08-31T07:38:43.295Z,67.35
2018-08-31T07:39:23.691Z,67.45
2018-08-31T07:40:04.083Z,67.25
2018-08-31T07:40:44.523Z,66.68
2018-08-31T07:41:25.270Z,67.25
2018-08-31T07:42:05.856Z,67.45
2018-08-31T07:42:46.464Z,67.16
2018-08-31T07:43:27.431Z,67.16
2018-08-31T07:44:07.872Z,67.64
2018-08-31T07:44:48.412Z,67.25
2018-08-31T07:45:28.893Z,67.16
2018-08-31T07:46:09.303Z,67.45
2018-08-31T07:46:49.778Z,67.16
2018-08-31T07:47:30.152Z,67.45
2018-08-31T07:48:10.533Z,66.2
2018-08-31T07:48:50.986Z,66.2
2018-08-31T07:49:31.420Z,66.68
2018-08-31T07:50:12.012Z,66.71
2018-08-31T07:50:52.572Z,66.49
2018-08-31T07:51:32.918Z,65.66
2018-08-31T07:52:13.366Z,65.66
2018-08-31T07:52:54.275Z,66.04
2018-08-31T07:53:34.672Z,65.56
2018-08-31T07:54:15.194Z,65.94
2018-08-31T07:54:55.749Z,65.56
2018-08-31T07:55:36.124Z,65.17
2018-08-31T07:56:16.528Z,65.37
2018-08-31T07:56:57.048Z,65.17
2018-08-31T07:57:37.607Z,64.98
2018-08-31T07:58:18.045Z,64.73
2018-08-31T07:58:58.541Z,64.22
2018-08-31T07:59:39.056Z,64.15
2018-08-31T08:00:19.576Z,63.76
2018-08-31T08:00:59.914Z,64.15
2018-08-31T08:01:41.265Z,63.48
2018-08-31T08:02:21.671Z,63.57
2018-08-31T08:03:02.304Z,63.67
2018-08-31T08:03:43.265Z,63.38
2018-08-31T08:04:23.673Z,63.18
2018-08-31T08:05:04.190Z,62.74
2018-08-31T08:05:44.583Z,62.35
2018-08-31T08:06:24.917Z,62.64
2018-08-31T08:07:05.444Z,62.61
2018-08-31T08:07:45.796Z,63.02
2018-08-31T08:08:26.625Z,62.93
2018-08-31T08:09:07.177Z,62.93
2018-08-31T08:09:47.587Z,62.74
2018-08-31T08:10:28.010Z,62.54
2018-08-31T08:11:08.472Z,61.39
2018-08-31T08:11:48.821Z,61.77
2018-08-31T08:12:29.292Z,61.29
2018-08-31T08:13:09.700Z,60.91
2018-08-31T08:13:50.142Z,61.39
2018-08-31T08:14:30.701Z,61.1
2018-08-31T08:15:11.161Z,61.1
2018-08-31T08:15:51.755Z,61.1
2018-08-31T08:16:32.230Z,60.91
2018-08-31T08:17:13.808Z,61.32
2018-08-31T08:17:54.254Z,60.84
2018-08-31T08:22:07.502Z,60.46
2018-08-31T08:24:53.918Z,59.81
2018-08-31T08:25:39.098Z,59.88
2018-08-31T08:26:19.752Z,59.72
2018-08-31T08:27:00.363Z,59.81
2018-08-31T08:27:41.004Z,59.81
2018-08-31T08:29:37.473Z,58.47
2018-08-31T08:30:17.821Z,58.85
2018-08-31T08:32:37.828Z,58.3
2018-08-31T08:35:58.254Z,57.24
2018-08-31T08:36:59.136Z,57.43
2018-08-31T08:37:53.417Z,57.34
2018-08-31T08:40:00.757Z,56.85
2018-08-31T08:40:53.114Z,57.05
2018-08-31T08:42:49.719Z,56.49
2018-08-31T08:43:32.060Z,55.63
2018-08-31T08:44:12.648Z,55.82
2018-08-31T08:44:53.257Z,55.92
2018-08-31T08:45:33.896Z,55.73
2018-08-31T08:46:14.243Z,55.63
2018-08-31T08:46:54.768Z,55.54
2018-08-31T08:47:37.580Z,54.79
2018-08-31T08:48:18.261Z,55.08
2018-08-31T08:48:58.791Z,54.69
2018-08-31T08:49:40.091Z,54.98
2018-08-31T08:50:20.775Z,54.21
2018-08-31T08:51:03.125Z,54.88
2018-08-31T08:51:43.627Z,54.31
2018-08-31T08:52:24.022Z,54.31
2018-08-31T08:53:04.534Z,54.21
2018-08-31T08:53:44.856Z,54.02
2018-08-31T08:54:27.118Z,53.37
2018-08-31T08:55:08.503Z,53.56
2018-08-31T08:55:51.094Z,53.37
2018-08-31T08:56:36.766Z,53.17
2018-08-31T08:57:17.091Z,52.98
2018-08-31T08:57:57.534Z,52.79
2018-08-31T08:58:38.010Z,52.72
2018-08-31T08:59:18.576Z,52.81
2018-08-31T08:59:58.916Z,51.37
2018-08-31T09:00:39.321Z,51.56
2018-08-31T09:01:19.773Z,51.75
2018-08-31T09:02:01.160Z,51.85
2018-08-31T09:02:42.589Z,50.4
2018-08-31T09:03:23.379Z,49.82
2018-08-31T09:04:03.821Z,49.53
2018-08-31T09:04:44.306Z,49.92
2018-08-31T09:05:24.878Z,49.34
2018-08-31T09:06:05.838Z,49.07
2018-08-31T09:06:46.186Z,48.59
2018-08-31T09:07:29.608Z,49.65
2018-08-31T09:08:12.658Z,48.79
2018-08-31T09:08:55.859Z,47.91
2018-08-31T09:09:39.654Z,47.33
2018-08-31T09:10:20.335Z,47.24
2018-08-31T09:11:03.899Z,47.24
2018-08-31T09:11:45.792Z,47.14
2018-08-31T09:12:26.504Z,47.33
2018-08-31T09:13:08.694Z,47.24
2018-08-31T09:13:50.188Z,47.24
2018-08-31T09:14:34.778Z,47.05
2018-08-31T09:15:20.352Z,47.14
2018-08-31T09:17:10.883Z,47.14
2018-08-31T09:17:54.179Z,46.95
2018-08-31T09:20:16.622Z,47.24
2018-08-31T09:20:58.032Z,47.14
2018-08-31T09:21:37.761Z,46.47
2018-08-31T09:22:18.931Z,46.56
2018-08-31T09:23:03.610Z,45.81
2018-08-31T09:23:54.577Z,44.75
2018-08-31T09:24:34.860Z,44.36
2018-08-31T09:25:28.684Z,44.46
2018-08-31T09:26:29.065Z,45.33
2018-08-31T09:27:11.660Z,44.67
2018-08-31T09:29:31.687Z,43.8
2018-08-31T09:30:14.601Z,44.29
2018-08-31T09:31:03.950Z,43.41
2018-08-31T09:31:45.961Z,43.34
2018-08-31T09:32:29.359Z,43.15
2018-08-31T09:33:12.431Z,42.96
2018-08-31T09:33:57.021Z,41.99
2018-08-31T09:34:39.986Z,41.89
2018-08-31T09:35:21.388Z,43.24
2018-08-31T09:36:03.768Z,43.15
2018-08-31T09:36:45.525Z,43.44
2018-08-31T09:37:26.753Z,43.24
2018-08-31T09:51:41.976Z,41.62
2018-08-31T09:52:22.873Z,41.62
2018-08-31T09:53:03.304Z,41.52
2018-08-31T09:53:43.667Z,41.52
2018-08-31T09:54:24.241Z,41.52
2018-08-31T09:55:04.712Z,41.93
2018-08-31T09:55:45.547Z,40.94
2018-08-31T09:56:26.390Z,41.14
2018-08-31T09:57:07.080Z,41.35
2018-08-31T09:57:48.439Z,41.35
2018-08-31T09:58:29.135Z,40.48
2018-08-31T09:59:09.704Z,40.28
2018-08-31T09:59:50.527Z,40.5
2018-08-31T10:00:31.551Z,39.82
2018-08-31T10:01:13.521Z,39.53
2018-08-31T10:01:54.428Z,38.54
2018-08-31T10:02:35.252Z,38.83
2018-08-31T10:03:16.891Z,39.41
2018-08-31T10:07:52.133Z,39.92
2018-08-31T10:08:34.916Z,39.8
2018-08-31T10:09:14.658Z,40.38
2018-08-31T10:09:56.753Z,40.5
2018-08-31T10:10:37.514Z,40.59
2018-08-31T10:11:18.006Z,40.69
2018-08-31T10:11:58.778Z,40.01
2018-08-31T10:12:40.213Z,40.01
2018-08-31T10:13:21.924Z,39.92
2018-08-31T10:14:02.180Z,38.96
2018-08-31T10:14:43.156Z,38.58
2018-08-31T10:15:23.828Z,38.48
2018-08-31T10:16:04.676Z,37.71
2018-08-31T10:16:46.236Z,37.03
2018-08-31T10:17:27.260Z,37.23
2018-08-31T10:18:11.422Z,37.41
2018-08-31T10:18:51.755Z,36.54
2018-08-31T10:19:32.091Z,37.03
2018-08-31T10:20:12.973Z,37.51
2018-08-31T10:20:54.650Z,37.71
2018-08-31T10:21:34.525Z,37.61
2018-08-31T10:22:15.161Z,37.23
2018-08-31T10:22:56.485Z,36.35
2018-08-31T10:23:36.360Z,36.35
2018-08-31T10:24:16.826Z,35.38